Lauderdale, MS (39335)

1:51 PM CDT on July 24, 2016 (GMT -0500)
Bailey, MS (Cook Road) | | Change Station

Elev 424 ft 32.46 °N, 88.69 °W | Updated 19 seconds ago

Scattered Clouds
Scattered Clouds
95.4 °F
Feels Like 111 °F
N
1.0
Wind Variable Wind from North
Gusts 0.0 mph

Today
High -- | Low -- °F
--% Chance of Precip.
Yesterday
High -- | Low -- °F
Precip. -- in
Pressure 29.99 in
Visibility 10.0 miles
Clouds Scattered Clouds 4300 ft
Heat Index 111 °F
Dew Point 77 °F
Humidity 56%
Rainfall 0.00 in
Snow Depth Not available.
6:04 AM 7:57 PM
Waning Gibbous, 74% visible
METAR KMEI 241758Z 19007KT 10SM SCT043 35/23 A3000 RMK AO2 SLP154 T03500228 10350 20256 58008 $
Pressure 29.99 in
Visibility 10.0 miles
Clouds Scattered Clouds 4300 ft
Heat Index 111 °F
Dew Point 77 °F
Humidity 56%
Rainfall 0.00 in
Snow Depth Not available.
6:04 AM 7:57 PM
Waning Gibbous, 74% visible
METAR KMEI 241758Z 19007KT 10SM SCT043 35/23 A3000 RMK AO2 SLP154 T03500228 10350 20256 58008 $

10-Day Weather Forecast

Almanac

Astronomy

Jul. 24, 2016 Rise Set
Actual Time
Civil Twilight
Nautical Twilight
Astronomical Twilight
Moon
Length of Visible Light
Length of Day
Tomorrow will be .
, % of the Moon is Illuminated

Today's Extremes

State Highs State Lows

Community

WunderPhotos

Upload Photos

1,927,157 photos uploaded!

WunderBlog® & News

Nearby

Air Quality

  Air Quality AQ Index Pollutant
Not available.

Snow Depth

Station Depth Elevation

Earthquake Activity

City Distance Mag. Time & Date
Minimum magnitude displayed is 2.5.

Coastal Water Temperatures

Place Temperature

Stations

Nearby Weather Stations

Station Location Temp. Windchill Dew Point Humidity Wind Precip. Elev Updated Type
                   

Watches & Warnings

There are currently no watches in effect.